EZY93JE EGGD-LTBS
Flight info
| Callsign | EZY93JE |
|---|---|
| Flight time | 4h 26m |
| Altitude | 35000 |
| Route | YORQI DCT NUCHU L607 KONAN DCT KOK DCT REMBA DCT ARCKY DCT LIRSU DCT KRH DCT KUNOD DCT GEDSO DCT VEKEN DCT DARZA DCT NAVSU DCT SOLGU DCT MEDUX UM867 KOGAT DCT DISOR DCT RIKSO UP14 ODNOD UT491 SONUP |
| Aircraft | A320/M-SDE3FGHIRWY/LB1 |
Departure
| Time | 2026-04-24 11:18 |
|---|---|
| Airport | Bristol Airport (EGGD) |
Arrival
| Time | 2026-04-24 15:44 |
|---|---|
| Airport | Dalaman International Airport (LTBS) |
| Time | Latitude | Longitude | Altitude | Speed | Heading |
|---|---|---|---|---|---|
| 2026-04-24 10:30 | 51.38546 | -2.71678 | 605 ft | 0 kts | 356° |
| 2026-04-24 11:06 | 51.38539 | -2.71677 | 605 ft | 2 kts | 356° |
| 2026-04-24 11:06 | 51.38524 | -2.71675 | 606 ft | 2 kts | 356° |
| 2026-04-24 11:06 | 51.38509 | -2.71674 | 606 ft | 2 kts | 356° |
| 2026-04-24 11:06 | 51.38494 | -2.71672 | 606 ft | 2 kts | 356° |
| 2026-04-24 11:07 | 51.38464 | -2.71669 | 606 ft | 1 kts | 356° |
| 2026-04-24 11:07 | 51.38454 | -2.71668 | 606 ft | 2 kts | 337° |
| 2026-04-24 11:07 | 51.38443 | -2.71653 | 606 ft | 2 kts | 304° |
| 2026-04-24 11:08 | 51.38438 | -2.71632 | 606 ft | 1 kts | 272° |
| 2026-04-24 11:08 | 51.38438 | -2.71622 | 606 ft | 1 kts | 263° |
| 2026-04-24 11:08 | 51.38438 | -2.71618 | 606 ft | 0 kts | 265° |
| 2026-04-24 11:12 | 51.38438 | -2.71624 | 606 ft | 3 kts | 265° |
| 2026-04-24 11:13 | 51.38435 | -2.71702 | 607 ft | 9 kts | 266° |
| 2026-04-24 11:13 | 51.38430 | -2.71816 | 608 ft | 10 kts | 267° |
| 2026-04-24 11:13 | 51.38431 | -2.71921 | 609 ft | 8 kts | 271° |
| 2026-04-24 11:13 | 51.38432 | -2.72002 | 610 ft | 7 kts | 269° |
| 2026-04-24 11:14 | 51.38427 | -2.72133 | 612 ft | 12 kts | 266° |
| 2026-04-24 11:14 | 51.38422 | -2.72268 | 615 ft | 13 kts | 266° |
| 2026-04-24 11:14 | 51.38415 | -2.72441 | 618 ft | 15 kts | 265° |
| 2026-04-24 11:14 | 51.38408 | -2.72608 | 620 ft | 15 kts | 266° |
| 2026-04-24 11:15 | 51.38401 | -2.72792 | 620 ft | 18 kts | 266° |
| 2026-04-24 11:15 | 51.38393 | -2.73008 | 618 ft | 15 kts | 266° |
| 2026-04-24 11:15 | 51.38388 | -2.73134 | 616 ft | 6 kts | 266° |
| 2026-04-24 11:15 | 51.38387 | -2.73149 | 616 ft | 0 kts | 265° |
| 2026-04-24 11:16 | 51.38387 | -2.73153 | 616 ft | 2 kts | 265° |
| 2026-04-24 11:16 | 51.38381 | -2.73252 | 614 ft | 12 kts | 256° |
| 2026-04-24 11:16 | 51.38319 | -2.73345 | 613 ft | 13 kts | 188° |
| 2026-04-24 11:16 | 51.38237 | -2.73316 | 613 ft | 11 kts | 146° |
| 2026-04-24 11:17 | 51.38216 | -2.73217 | 615 ft | 9 kts | 83° |
| 2026-04-24 11:17 | 51.38224 | -2.73036 | 619 ft | 39 kts | 86° |
| 2026-04-24 11:17 | 51.38259 | -2.72139 | 614 ft | 119 kts | 86° |
| 2026-04-24 11:17 | 51.38325 | -2.70537 | 875 ft | 156 kts | 86° |
| 2026-04-24 11:18 | 51.38396 | -2.68811 | 1595 ft | 163 kts | 87° |
| 2026-04-24 11:18 | 51.38461 | -2.67010 | 2416 ft | 167 kts | 88° |
| 2026-04-24 11:18 | 51.38515 | -2.65126 | 3020 ft | 180 kts | 89° |
| 2026-04-24 11:18 | 51.38574 | -2.63017 | 3505 ft | 201 kts | 89° |
| 2026-04-24 11:19 | 51.38640 | -2.60696 | 4011 ft | 220 kts | 89° |
| 2026-04-24 11:19 | 51.38714 | -2.58159 | 4469 ft | 240 kts | 88° |
| 2026-04-24 11:19 | 51.39123 | -2.55489 | 5035 ft | 257 kts | 63° |
| 2026-04-24 11:19 | 51.40281 | -2.53304 | 5624 ft | 266 kts | 38° |
| 2026-04-24 11:20 | 51.41976 | -2.52066 | 5925 ft | 270 kts | 21° |
| 2026-04-24 11:20 | 51.43688 | -2.50868 | 5979 ft | 268 kts | 31° |
| 2026-04-24 11:20 | 51.45291 | -2.49415 | 5987 ft | 267 kts | 34° |
| 2026-04-24 11:20 | 51.46880 | -2.47860 | 5990 ft | 268 kts | 34° |
| 2026-04-24 11:21 | 51.48487 | -2.46288 | 6054 ft | 270 kts | 34° |
| 2026-04-24 11:21 | 51.50089 | -2.44701 | 6248 ft | 273 kts | 36° |
| 2026-04-24 11:21 | 51.51402 | -2.42588 | 6325 ft | 263 kts | 63° |
| 2026-04-24 11:21 | 51.51926 | -2.39847 | 6699 ft | 263 kts | 88° |
| 2026-04-24 11:22 | 51.51795 | -2.36905 | 7402 ft | 266 kts | 96° |
| 2026-04-24 11:22 | 51.51595 | -2.33952 | 8154 ft | 269 kts | 97° |
| 2026-04-24 11:22 | 51.51396 | -2.30989 | 8887 ft | 273 kts | 97° |
| 2026-04-24 11:22 | 51.51189 | -2.27945 | 9609 ft | 276 kts | 97° |
| 2026-04-24 11:23 | 51.50981 | -2.24909 | 10328 ft | 280 kts | 97° |
| 2026-04-24 11:23 | 51.50763 | -2.21743 | 10837 ft | 291 kts | 97° |
| 2026-04-24 11:23 | 51.50533 | -2.18418 | 11146 ft | 309 kts | 97° |
| 2026-04-24 11:23 | 51.50292 | -2.14948 | 11430 ft | 325 kts | 97° |
| 2026-04-24 11:24 | 51.50034 | -2.11239 | 11714 ft | 340 kts | 97° |
| 2026-04-24 11:24 | 51.49767 | -2.07438 | 12178 ft | 348 kts | 97° |
| 2026-04-24 11:24 | 51.49497 | -2.03592 | 12762 ft | 351 kts | 97° |
| 2026-04-24 11:24 | 51.49220 | -1.99680 | 13347 ft | 353 kts | 97° |
| 2026-04-24 11:25 | 51.48943 | -1.95793 | 13947 ft | 356 kts | 97° |
| 2026-04-24 11:25 | 51.48660 | -1.91834 | 14442 ft | 360 kts | 97° |
| 2026-04-24 11:25 | 51.48373 | -1.87841 | 14935 ft | 364 kts | 98° |
| 2026-04-24 11:25 | 51.48080 | -1.83797 | 15440 ft | 367 kts | 98° |
| 2026-04-24 11:26 | 51.47786 | -1.79735 | 15931 ft | 370 kts | 98° |
| 2026-04-24 11:26 | 51.47487 | -1.75630 | 16386 ft | 374 kts | 98° |
| 2026-04-24 11:26 | 51.47186 | -1.71538 | 16821 ft | 377 kts | 98° |
| 2026-04-24 11:26 | 51.46832 | -1.67363 | 17258 ft | 380 kts | 101° |
| 2026-04-24 11:27 | 51.46300 | -1.63204 | 17721 ft | 381 kts | 104° |
| 2026-04-24 11:27 | 51.45731 | -1.59049 | 18132 ft | 385 kts | 104° |
| 2026-04-24 11:27 | 51.45163 | -1.54881 | 18538 ft | 388 kts | 104° |
| 2026-04-24 11:27 | 51.44584 | -1.50638 | 18949 ft | 391 kts | 104° |
| 2026-04-24 11:28 | 51.44004 | -1.46409 | 19323 ft | 394 kts | 104° |
| 2026-04-24 11:28 | 51.43416 | -1.42133 | 19702 ft | 397 kts | 104° |
| 2026-04-24 11:28 | 51.42818 | -1.37800 | 20062 ft | 401 kts | 104° |
| 2026-04-24 11:28 | 51.42211 | -1.33409 | 20436 ft | 404 kts | 105° |
| 2026-04-24 11:29 | 51.41609 | -1.29064 | 20830 ft | 406 kts | 105° |
| 2026-04-24 11:29 | 51.40988 | -1.24601 | 21182 ft | 409 kts | 105° |
| 2026-04-24 11:29 | 51.40372 | -1.20189 | 21531 ft | 411 kts | 105° |
| 2026-04-24 11:29 | 51.39786 | -1.15736 | 21862 ft | 415 kts | 102° |
| 2026-04-24 11:30 | 51.39442 | -1.11139 | 22171 ft | 420 kts | 97° |
| 2026-04-24 11:30 | 51.39213 | -1.06454 | 22529 ft | 422 kts | 97° |
| 2026-04-24 11:30 | 51.38974 | -1.01781 | 22851 ft | 425 kts | 97° |
| 2026-04-24 11:30 | 51.38732 | -0.97087 | 23207 ft | 427 kts | 97° |
| 2026-04-24 11:31 | 51.38487 | -0.92371 | 23556 ft | 429 kts | 97° |
| 2026-04-24 11:31 | 51.38237 | -0.87611 | 23843 ft | 431 kts | 97° |
| 2026-04-24 11:31 | 51.37985 | -0.82831 | 24072 ft | 435 kts | 97° |
| 2026-04-24 11:31 | 51.37729 | -0.78007 | 24332 ft | 438 kts | 97° |
| 2026-04-24 11:32 | 51.37469 | -0.73166 | 24606 ft | 440 kts | 97° |
| 2026-04-24 11:32 | 51.37207 | -0.68303 | 24885 ft | 443 kts | 97° |
| 2026-04-24 11:32 | 51.36937 | -0.63355 | 25144 ft | 445 kts | 96° |
| 2026-04-24 11:32 | 51.36668 | -0.58434 | 25392 ft | 448 kts | 96° |
| 2026-04-24 11:33 | 51.36393 | -0.53472 | 25666 ft | 450 kts | 96° |
| 2026-04-24 11:33 | 51.36116 | -0.48498 | 25922 ft | 452 kts | 96° |
| 2026-04-24 11:33 | 51.35836 | -0.43498 | 26136 ft | 455 kts | 96° |
| 2026-04-24 11:33 | 51.35551 | -0.38461 | 26388 ft | 457 kts | 96° |
| 2026-04-24 11:34 | 51.35263 | -0.33409 | 26620 ft | 460 kts | 97° |
| 2026-04-24 11:34 | 51.34969 | -0.28281 | 26848 ft | 462 kts | 97° |
| 2026-04-24 11:34 | 51.34674 | -0.23200 | 27068 ft | 464 kts | 97° |
| 2026-04-24 11:34 | 51.34374 | -0.18036 | 27308 ft | 466 kts | 97° |
| 2026-04-24 11:35 | 51.34070 | -0.12868 | 27516 ft | 469 kts | 97° |
| 2026-04-24 11:35 | 51.33765 | -0.07721 | 27741 ft | 470 kts | 97° |
| 2026-04-24 11:35 | 51.33455 | -0.02525 | 27956 ft | 473 kts | 97° |
| 2026-04-24 11:35 | 51.33129 | 0.02776 | 28172 ft | 474 kts | 98° |
| 2026-04-24 11:36 | 51.32677 | 0.07990 | 28351 ft | 476 kts | 100° |
| 2026-04-24 11:36 | 51.32187 | 0.13186 | 28552 ft | 478 kts | 100° |
| 2026-04-24 11:36 | 51.31694 | 0.18420 | 28748 ft | 480 kts | 100° |
| 2026-04-24 11:36 | 51.31194 | 0.23700 | 28954 ft | 481 kts | 100° |
| 2026-04-24 11:37 | 51.30690 | 0.29003 | 29133 ft | 483 kts | 100° |
| 2026-04-24 11:37 | 51.30189 | 0.34251 | 29338 ft | 484 kts | 100° |
| 2026-04-24 11:37 | 51.29693 | 0.39421 | 29606 ft | 484 kts | 100° |
| 2026-04-24 11:37 | 51.29194 | 0.44585 | 29849 ft | 484 kts | 100° |
| 2026-04-24 11:38 | 51.28684 | 0.49855 | 30107 ft | 484 kts | 100° |
| 2026-04-24 11:38 | 51.28167 | 0.55154 | 30358 ft | 484 kts | 100° |
| 2026-04-24 11:38 | 51.27648 | 0.60460 | 30636 ft | 483 kts | 100° |
| 2026-04-24 11:38 | 51.27129 | 0.65737 | 30929 ft | 482 kts | 101° |
| 2026-04-24 11:39 | 51.26610 | 0.70987 | 31188 ft | 481 kts | 101° |
| 2026-04-24 11:39 | 51.26088 | 0.76237 | 31471 ft | 480 kts | 101° |
| 2026-04-24 11:39 | 51.25571 | 0.81427 | 31745 ft | 479 kts | 101° |
| 2026-04-24 11:39 | 51.25046 | 0.86660 | 32008 ft | 478 kts | 101° |
| 2026-04-24 11:40 | 51.24517 | 0.91910 | 32238 ft | 478 kts | 101° |
| 2026-04-24 11:40 | 51.23992 | 0.97099 | 32486 ft | 477 kts | 101° |
| 2026-04-24 11:40 | 51.23459 | 1.02350 | 32705 ft | 477 kts | 101° |
| 2026-04-24 11:40 | 51.22930 | 1.07529 | 32967 ft | 476 kts | 101° |
| 2026-04-24 11:41 | 51.22393 | 1.12759 | 33189 ft | 476 kts | 101° |
| 2026-04-24 11:41 | 51.21862 | 1.17920 | 33404 ft | 476 kts | 101° |
| 2026-04-24 11:41 | 51.21319 | 1.23164 | 33639 ft | 475 kts | 101° |
| 2026-04-24 11:41 | 51.20778 | 1.28371 | 33861 ft | 474 kts | 101° |
| 2026-04-24 11:42 | 51.20249 | 1.33552 | 34078 ft | 474 kts | 99° |
| 2026-04-24 11:42 | 51.19892 | 1.38702 | 34287 ft | 475 kts | 95° |
| 2026-04-24 11:42 | 51.19719 | 1.43991 | 34536 ft | 474 kts | 93° |
| 2026-04-24 11:42 | 51.19590 | 1.49193 | 34773 ft | 473 kts | 93° |
| 2026-04-24 11:43 | 51.19459 | 1.54386 | 35032 ft | 472 kts | 93° |
| 2026-04-24 11:43 | 51.19325 | 1.59627 | 35277 ft | 471 kts | 93° |
| 2026-04-24 11:43 | 51.19192 | 1.64785 | 35415 ft | 472 kts | 93° |
| 2026-04-24 11:43 | 51.19024 | 1.69985 | 35445 ft | 471 kts | 96° |
| 2026-04-24 11:44 | 51.18278 | 1.80286 | 35448 ft | 468 kts | 99° |
| 2026-04-24 11:44 | 51.17439 | 1.90551 | 35452 ft | 468 kts | 99° |
| 2026-04-24 11:45 | 51.16611 | 2.00777 | 35448 ft | 468 kts | 99° |
| 2026-04-24 11:45 | 51.15711 | 2.11012 | 35454 ft | 467 kts | 105° |
| 2026-04-24 11:46 | 51.13831 | 2.20807 | 35457 ft | 464 kts | 110° |
| 2026-04-24 11:46 | 51.11832 | 2.30564 | 35456 ft | 463 kts | 110° |
| 2026-04-24 11:47 | 51.09855 | 2.40267 | 35453 ft | 463 kts | 110° |
| 2026-04-24 11:47 | 51.07887 | 2.49909 | 35452 ft | 462 kts | 110° |
| 2026-04-24 11:48 | 51.05903 | 2.59587 | 35453 ft | 461 kts | 110° |
| 2026-04-24 11:48 | 51.03916 | 2.69232 | 35458 ft | 460 kts | 111° |
| 2026-04-24 11:49 | 51.01962 | 2.78648 | 35456 ft | 459 kts | 111° |
| 2026-04-24 11:49 | 51.00052 | 2.87819 | 35456 ft | 458 kts | 111° |
| 2026-04-24 11:50 | 50.98285 | 2.96270 | 35455 ft | 457 kts | 111° |
| 2026-04-24 11:50 | 50.96463 | 3.04949 | 35454 ft | 456 kts | 111° |
| 2026-04-24 11:51 | 50.94469 | 3.14408 | 35453 ft | 456 kts | 111° |
| 2026-04-24 11:51 | 50.92491 | 3.23745 | 35450 ft | 456 kts | 111° |
| 2026-04-24 11:52 | 50.90485 | 3.33166 | 35447 ft | 455 kts | 111° |
| 2026-04-24 11:52 | 50.88450 | 3.42689 | 35447 ft | 455 kts | 111° |
| 2026-04-24 11:53 | 50.86424 | 3.52117 | 35443 ft | 454 kts | 111° |
| 2026-04-24 11:53 | 50.84385 | 3.61559 | 35446 ft | 454 kts | 111° |
| 2026-04-24 11:54 | 50.82345 | 3.70956 | 35446 ft | 454 kts | 112° |
| 2026-04-24 11:54 | 50.80298 | 3.80353 | 35445 ft | 453 kts | 112° |
| 2026-04-24 11:55 | 50.78251 | 3.89707 | 35447 ft | 453 kts | 112° |
| 2026-04-24 11:55 | 50.76185 | 3.99107 | 35446 ft | 453 kts | 112° |
| 2026-04-24 11:56 | 50.74128 | 4.08419 | 35453 ft | 453 kts | 112° |
| 2026-04-24 11:56 | 50.72060 | 4.17746 | 35454 ft | 452 kts | 112° |
| 2026-04-24 11:57 | 50.69981 | 4.27074 | 35455 ft | 452 kts | 112° |
| 2026-04-24 11:57 | 50.67894 | 4.36402 | 35455 ft | 452 kts | 112° |
| 2026-04-24 11:58 | 50.65805 | 4.45697 | 35453 ft | 451 kts | 113° |
| 2026-04-24 11:58 | 50.63705 | 4.54993 | 35453 ft | 451 kts | 113° |
| 2026-04-24 11:59 | 50.61607 | 4.64246 | 35452 ft | 451 kts | 113° |
| 2026-04-24 11:59 | 50.59495 | 4.73520 | 35452 ft | 450 kts | 114° |
| 2026-04-24 12:00 | 50.57387 | 4.82733 | 35447 ft | 450 kts | 114° |
| 2026-04-24 12:00 | 50.55266 | 4.91964 | 35443 ft | 449 kts | 114° |
| 2026-04-24 12:01 | 50.53142 | 5.01168 | 35433 ft | 449 kts | 114° |
| 2026-04-24 12:01 | 50.51020 | 5.10324 | 35434 ft | 449 kts | 114° |
| 2026-04-24 12:02 | 50.48881 | 5.19516 | 35432 ft | 449 kts | 114° |
| 2026-04-24 12:02 | 50.46733 | 5.28702 | 35439 ft | 450 kts | 114° |
| 2026-04-24 12:03 | 50.44617 | 5.37719 | 35438 ft | 450 kts | 114° |
| 2026-04-24 12:03 | 50.42571 | 5.46401 | 35445 ft | 450 kts | 113° |
| 2026-04-24 12:04 | 50.40390 | 5.55615 | 35442 ft | 450 kts | 113° |
| 2026-04-24 12:04 | 50.38370 | 5.64111 | 35443 ft | 451 kts | 113° |
| 2026-04-24 12:05 | 50.36250 | 5.72999 | 35441 ft | 450 kts | 114° |
| 2026-04-24 12:05 | 50.34058 | 5.82149 | 35435 ft | 451 kts | 114° |
| 2026-04-24 12:06 | 50.31865 | 5.91265 | 35433 ft | 451 kts | 114° |
| 2026-04-24 12:06 | 50.29659 | 6.00398 | 35431 ft | 451 kts | 114° |
| 2026-04-24 12:07 | 50.27438 | 6.09550 | 35434 ft | 451 kts | 114° |
| 2026-04-24 12:07 | 50.25219 | 6.18660 | 35433 ft | 451 kts | 114° |
| 2026-04-24 12:08 | 50.22987 | 6.27785 | 35421 ft | 451 kts | 114° |
| 2026-04-24 12:08 | 50.20741 | 6.36927 | 35420 ft | 451 kts | 113° |
| 2026-04-24 12:09 | 50.18187 | 6.45787 | 35418 ft | 448 kts | 125° |
| 2026-04-24 12:09 | 50.14349 | 6.53349 | 35424 ft | 445 kts | 132° |
| 2026-04-24 12:10 | 50.10393 | 6.60661 | 35430 ft | 445 kts | 132° |
| 2026-04-24 12:11 | 50.04407 | 6.71704 | 35424 ft | 445 kts | 133° |
| 2026-04-24 12:11 | 50.00420 | 6.79035 | 35415 ft | 445 kts | 133° |
| 2026-04-24 12:12 | 49.96445 | 6.86326 | 35412 ft | 444 kts | 133° |
| 2026-04-24 12:12 | 49.92448 | 6.93633 | 35407 ft | 444 kts | 133° |
| 2026-04-24 12:13 | 49.88738 | 7.00400 | 35408 ft | 444 kts | 133° |
| 2026-04-24 12:13 | 49.84747 | 7.07659 | 35411 ft | 444 kts | 133° |
| 2026-04-24 12:14 | 49.80740 | 7.14926 | 35414 ft | 444 kts | 133° |
| 2026-04-24 12:14 | 49.76739 | 7.22161 | 35419 ft | 444 kts | 132° |
| 2026-04-24 12:15 | 49.72729 | 7.29393 | 35420 ft | 444 kts | 132° |
| 2026-04-24 12:15 | 49.68709 | 7.36625 | 35419 ft | 444 kts | 132° |
| 2026-04-24 12:16 | 49.64678 | 7.43857 | 35420 ft | 444 kts | 132° |
| 2026-04-24 12:16 | 49.60896 | 7.50623 | 35417 ft | 444 kts | 132° |
| 2026-04-24 12:17 | 49.56917 | 7.57722 | 35410 ft | 444 kts | 131° |
| 2026-04-24 12:17 | 49.53240 | 7.64267 | 35409 ft | 444 kts | 131° |
| 2026-04-24 12:18 | 49.49419 | 7.71052 | 35409 ft | 444 kts | 132° |
| 2026-04-24 12:18 | 49.45377 | 7.78215 | 35408 ft | 443 kts | 132° |
| 2026-04-24 12:19 | 49.41364 | 7.85319 | 35405 ft | 443 kts | 132° |
| 2026-04-24 12:19 | 49.37302 | 7.92423 | 35401 ft | 443 kts | 132° |
| 2026-04-24 12:20 | 49.33273 | 7.99478 | 35399 ft | 443 kts | 132° |
| 2026-04-24 12:20 | 49.29225 | 8.06570 | 35397 ft | 443 kts | 132° |
| 2026-04-24 12:21 | 49.25187 | 8.13627 | 35396 ft | 443 kts | 132° |
| 2026-04-24 12:21 | 49.21135 | 8.20688 | 35398 ft | 443 kts | 132° |
| 2026-04-24 12:22 | 49.17059 | 8.27770 | 35395 ft | 443 kts | 131° |
| 2026-04-24 12:22 | 49.13020 | 8.34765 | 35392 ft | 443 kts | 131° |
| 2026-04-24 12:23 | 49.08936 | 8.41822 | 35393 ft | 443 kts | 131° |
| 2026-04-24 12:23 | 49.04879 | 8.48811 | 35395 ft | 443 kts | 131° |
| 2026-04-24 12:24 | 49.00812 | 8.55797 | 35386 ft | 443 kts | 131° |
| 2026-04-24 12:24 | 48.96645 | 8.62671 | 35369 ft | 444 kts | 133° |
| 2026-04-24 12:25 | 48.92390 | 8.69513 | 35365 ft | 445 kts | 133° |
| 2026-04-24 12:25 | 48.88147 | 8.76321 | 35369 ft | 446 kts | 133° |
| 2026-04-24 12:26 | 48.83939 | 8.83056 | 35380 ft | 447 kts | 133° |
| 2026-04-24 12:26 | 48.79662 | 8.89883 | 35389 ft | 448 kts | 133° |
| 2026-04-24 12:27 | 48.75519 | 8.96479 | 35395 ft | 448 kts | 133° |
| 2026-04-24 12:27 | 48.71240 | 9.03273 | 35397 ft | 449 kts | 133° |
| 2026-04-24 12:28 | 48.66911 | 9.10127 | 35399 ft | 449 kts | 133° |
| 2026-04-24 12:28 | 48.62621 | 9.16902 | 35397 ft | 449 kts | 133° |
| 2026-04-24 12:29 | 48.58323 | 9.23672 | 35393 ft | 448 kts | 133° |
| 2026-04-24 12:29 | 48.54026 | 9.30423 | 35382 ft | 448 kts | 133° |
| 2026-04-24 12:30 | 48.49717 | 9.37175 | 35375 ft | 448 kts | 133° |
| 2026-04-24 12:30 | 48.45412 | 9.43903 | 35369 ft | 447 kts | 132° |
| 2026-04-24 12:31 | 48.41097 | 9.50626 | 35354 ft | 447 kts | 132° |
| 2026-04-24 12:31 | 48.36792 | 9.57320 | 35358 ft | 447 kts | 132° |
| 2026-04-24 12:32 | 48.32597 | 9.64225 | 35363 ft | 447 kts | 127° |
| 2026-04-24 12:32 | 48.28702 | 9.71488 | 35369 ft | 447 kts | 127° |
| 2026-04-24 12:33 | 48.24815 | 9.78703 | 35371 ft | 447 kts | 127° |
| 2026-04-24 12:33 | 48.20924 | 9.85909 | 35373 ft | 447 kts | 127° |
| 2026-04-24 12:34 | 48.17024 | 9.93113 | 35373 ft | 447 kts | 127° |
| 2026-04-24 12:34 | 48.13100 | 10.00343 | 35375 ft | 447 kts | 127° |
| 2026-04-24 12:35 | 48.09190 | 10.07525 | 35378 ft | 447 kts | 127° |
| 2026-04-24 12:35 | 48.05272 | 10.14705 | 35380 ft | 447 kts | 127° |
| 2026-04-24 12:36 | 48.01343 | 10.21886 | 35379 ft | 447 kts | 127° |
| 2026-04-24 12:36 | 47.97414 | 10.29048 | 35378 ft | 447 kts | 127° |
| 2026-04-24 12:37 | 47.93503 | 10.36157 | 35371 ft | 447 kts | 127° |
| 2026-04-24 12:37 | 47.89563 | 10.43302 | 35370 ft | 446 kts | 127° |
| 2026-04-24 12:38 | 47.85638 | 10.50399 | 35370 ft | 446 kts | 127° |
| 2026-04-24 12:38 | 47.81757 | 10.57399 | 35367 ft | 446 kts | 127° |
| 2026-04-24 12:39 | 47.74215 | 10.70951 | 35363 ft | 446 kts | 127° |
| 2026-04-24 12:40 | 47.70378 | 10.77818 | 35366 ft | 446 kts | 127° |
| 2026-04-24 12:40 | 47.66412 | 10.84899 | 35372 ft | 446 kts | 127° |
| 2026-04-24 12:41 | 47.62650 | 10.91598 | 35376 ft | 446 kts | 127° |
| 2026-04-24 12:41 | 47.58752 | 10.98524 | 35388 ft | 446 kts | 127° |
| 2026-04-24 12:42 | 47.54900 | 11.05349 | 35394 ft | 446 kts | 127° |
| 2026-04-24 12:42 | 47.50975 | 11.12285 | 35389 ft | 446 kts | 127° |
| 2026-04-24 12:43 | 47.47004 | 11.19286 | 35388 ft | 446 kts | 127° |
| 2026-04-24 12:43 | 47.43034 | 11.26264 | 35380 ft | 446 kts | 127° |
| 2026-04-24 12:44 | 47.39383 | 11.32668 | 35380 ft | 446 kts | 127° |
| 2026-04-24 12:44 | 47.35181 | 11.40020 | 35378 ft | 446 kts | 127° |
| 2026-04-24 12:45 | 47.31201 | 11.46965 | 35370 ft | 446 kts | 126° |
| 2026-04-24 12:45 | 47.27200 | 11.53928 | 35376 ft | 446 kts | 126° |
| 2026-04-24 12:46 | 47.23188 | 11.60894 | 35386 ft | 446 kts | 126° |
| 2026-04-24 12:46 | 47.19206 | 11.67788 | 35383 ft | 447 kts | 127° |
| 2026-04-24 12:47 | 47.15188 | 11.74727 | 35370 ft | 447 kts | 127° |
| 2026-04-24 12:47 | 47.11159 | 11.81669 | 35378 ft | 447 kts | 127° |
| 2026-04-24 12:48 | 47.07462 | 11.88878 | 35367 ft | 443 kts | 115° |
| 2026-04-24 12:48 | 47.04740 | 11.96933 | 35368 ft | 441 kts | 112° |
| 2026-04-24 12:49 | 47.02043 | 12.05006 | 35375 ft | 441 kts | 112° |
| 2026-04-24 12:49 | 46.99337 | 12.13071 | 35356 ft | 441 kts | 112° |
| 2026-04-24 12:50 | 46.96637 | 12.21095 | 35359 ft | 441 kts | 112° |
| 2026-04-24 12:50 | 46.93924 | 12.29131 | 35360 ft | 441 kts | 112° |
| 2026-04-24 12:51 | 46.91214 | 12.37130 | 35355 ft | 440 kts | 112° |
| 2026-04-24 12:51 | 46.88490 | 12.45149 | 35362 ft | 440 kts | 112° |
| 2026-04-24 12:52 | 46.85772 | 12.53124 | 35351 ft | 440 kts | 112° |
| 2026-04-24 12:52 | 46.83067 | 12.61040 | 35347 ft | 439 kts | 112° |
| 2026-04-24 12:53 | 46.80696 | 12.67956 | 35317 ft | 439 kts | 112° |
| 2026-04-24 12:53 | 46.78040 | 12.75683 | 35326 ft | 439 kts | 112° |
| 2026-04-24 12:54 | 46.75283 | 12.83678 | 35331 ft | 440 kts | 112° |
| 2026-04-24 12:54 | 46.72597 | 12.91445 | 35347 ft | 440 kts | 112° |
| 2026-04-24 12:55 | 46.69831 | 12.99422 | 35326 ft | 440 kts | 112° |
| 2026-04-24 12:55 | 46.67085 | 13.07314 | 35324 ft | 440 kts | 112° |
| 2026-04-24 12:56 | 46.64317 | 13.15248 | 35324 ft | 440 kts | 112° |
| 2026-04-24 12:56 | 46.61556 | 13.23138 | 35326 ft | 440 kts | 112° |
| 2026-04-24 12:57 | 46.58796 | 13.31001 | 35326 ft | 440 kts | 112° |
| 2026-04-24 12:57 | 46.55746 | 13.38716 | 35338 ft | 447 kts | 123° |
| 2026-04-24 12:58 | 46.51552 | 13.45477 | 35324 ft | 450 kts | 128° |
| 2026-04-24 12:58 | 46.47315 | 13.52090 | 35321 ft | 450 kts | 128° |
| 2026-04-24 12:59 | 46.43076 | 13.58699 | 35317 ft | 449 kts | 127° |
| 2026-04-24 12:59 | 46.38828 | 13.65310 | 35310 ft | 449 kts | 128° |
| 2026-04-24 13:00 | 46.34602 | 13.71870 | 35300 ft | 449 kts | 128° |
| 2026-04-24 13:00 | 46.30330 | 13.78485 | 35301 ft | 449 kts | 128° |
| 2026-04-24 13:01 | 46.26076 | 13.85057 | 35299 ft | 449 kts | 128° |
| 2026-04-24 13:01 | 46.21815 | 13.91623 | 35303 ft | 449 kts | 128° |
| 2026-04-24 13:02 | 46.17538 | 13.98198 | 35305 ft | 449 kts | 128° |
| 2026-04-24 13:02 | 46.13285 | 14.04721 | 35305 ft | 449 kts | 128° |
| 2026-04-24 13:03 | 46.09026 | 14.11237 | 35292 ft | 448 kts | 128° |
| 2026-04-24 13:03 | 46.04737 | 14.17782 | 35289 ft | 448 kts | 128° |
| 2026-04-24 13:04 | 46.00475 | 14.24270 | 35277 ft | 448 kts | 128° |
| 2026-04-24 13:04 | 45.96356 | 14.30527 | 35281 ft | 448 kts | 128° |
| 2026-04-24 13:05 | 45.92181 | 14.36853 | 35283 ft | 448 kts | 127° |
| 2026-04-24 13:05 | 45.87948 | 14.43253 | 35278 ft | 447 kts | 127° |
| 2026-04-24 13:06 | 45.83810 | 14.49494 | 35277 ft | 447 kts | 128° |
| 2026-04-24 13:06 | 45.79694 | 14.55688 | 35279 ft | 446 kts | 127° |
| 2026-04-24 13:07 | 45.75526 | 14.61946 | 35277 ft | 446 kts | 127° |
| 2026-04-24 13:07 | 45.71230 | 14.68380 | 35275 ft | 446 kts | 128° |
| 2026-04-24 13:08 | 45.66949 | 14.74777 | 35276 ft | 447 kts | 128° |
| 2026-04-24 13:08 | 45.62666 | 14.81161 | 35281 ft | 447 kts | 128° |
| 2026-04-24 13:09 | 45.56229 | 14.90728 | 35292 ft | 448 kts | 128° |
| 2026-04-24 13:09 | 45.51923 | 14.97110 | 35294 ft | 448 kts | 128° |
| 2026-04-24 13:10 | 45.47964 | 15.03860 | 35299 ft | 441 kts | 118° |
| 2026-04-24 13:10 | 45.44504 | 15.11013 | 35301 ft | 441 kts | 118° |
| 2026-04-24 13:11 | 45.41018 | 15.18189 | 35303 ft | 440 kts | 119° |
| 2026-04-24 13:11 | 45.37556 | 15.25298 | 35294 ft | 440 kts | 119° |
| 2026-04-24 13:12 | 45.34079 | 15.32419 | 35298 ft | 439 kts | 119° |
| 2026-04-24 13:12 | 45.30590 | 15.39547 | 35296 ft | 439 kts | 119° |
| 2026-04-24 13:13 | 45.27364 | 15.46124 | 35291 ft | 439 kts | 118° |
| 2026-04-24 13:13 | 45.23869 | 15.53231 | 35286 ft | 439 kts | 119° |
| 2026-04-24 13:14 | 45.20393 | 15.60281 | 35289 ft | 438 kts | 119° |
| 2026-04-24 13:14 | 45.16900 | 15.67350 | 35296 ft | 438 kts | 120° |
| 2026-04-24 13:15 | 45.13398 | 15.74420 | 35294 ft | 439 kts | 120° |
| 2026-04-24 13:15 | 45.09900 | 15.81465 | 35302 ft | 438 kts | 120° |
| 2026-04-24 13:16 | 45.06396 | 15.88503 | 35305 ft | 438 kts | 120° |
| 2026-04-24 13:16 | 45.02899 | 15.95510 | 35306 ft | 438 kts | 120° |
| 2026-04-24 13:17 | 44.99400 | 16.02503 | 35303 ft | 438 kts | 120° |
| 2026-04-24 13:17 | 44.95895 | 16.09491 | 35305 ft | 438 kts | 120° |
| 2026-04-24 13:18 | 44.92371 | 16.16500 | 35301 ft | 438 kts | 120° |
| 2026-04-24 13:18 | 44.88855 | 16.23476 | 35292 ft | 437 kts | 120° |
| 2026-04-24 13:19 | 44.85339 | 16.30436 | 35297 ft | 437 kts | 120° |
| 2026-04-24 13:19 | 44.81824 | 16.37376 | 35294 ft | 436 kts | 120° |
| 2026-04-24 13:20 | 44.78287 | 16.44342 | 35289 ft | 436 kts | 120° |
| 2026-04-24 13:20 | 44.74751 | 16.51291 | 35287 ft | 436 kts | 120° |
| 2026-04-24 13:21 | 44.71440 | 16.57782 | 35293 ft | 436 kts | 120° |
| 2026-04-24 13:21 | 44.67961 | 16.64586 | 35291 ft | 435 kts | 120° |
| 2026-04-24 13:22 | 44.64648 | 16.71053 | 35295 ft | 436 kts | 121° |
| 2026-04-24 13:22 | 44.61105 | 16.77949 | 35300 ft | 436 kts | 121° |
| 2026-04-24 13:23 | 44.57567 | 16.84822 | 35211 ft | 436 kts | 121° |
| 2026-04-24 13:23 | 44.53959 | 16.91684 | 35233 ft | 439 kts | 123° |
| 2026-04-24 13:24 | 44.50187 | 16.98374 | 35228 ft | 438 kts | 123° |
| 2026-04-24 13:24 | 44.46442 | 17.05016 | 35229 ft | 438 kts | 123° |
| 2026-04-24 13:25 | 44.42650 | 17.11726 | 35225 ft | 438 kts | 123° |
| 2026-04-24 13:25 | 44.38879 | 17.18382 | 35221 ft | 438 kts | 123° |
| 2026-04-24 13:26 | 44.35129 | 17.24987 | 35216 ft | 438 kts | 123° |
| 2026-04-24 13:26 | 44.31351 | 17.31626 | 35216 ft | 437 kts | 123° |
| 2026-04-24 13:27 | 44.27578 | 17.38241 | 35211 ft | 437 kts | 123° |
| 2026-04-24 13:27 | 44.23783 | 17.44880 | 35219 ft | 437 kts | 123° |
| 2026-04-24 13:28 | 44.20023 | 17.51440 | 35224 ft | 436 kts | 123° |
| 2026-04-24 13:28 | 44.16237 | 17.58033 | 35224 ft | 436 kts | 123° |
| 2026-04-24 13:29 | 44.12473 | 17.64571 | 35222 ft | 436 kts | 123° |
| 2026-04-24 13:29 | 44.08740 | 17.71185 | 35218 ft | 435 kts | 123° |
| 2026-04-24 13:30 | 44.05044 | 17.77831 | 35216 ft | 435 kts | 123° |
| 2026-04-24 13:30 | 44.01336 | 17.84467 | 35218 ft | 435 kts | 123° |
| 2026-04-24 13:31 | 43.97645 | 17.91053 | 35232 ft | 434 kts | 123° |
| 2026-04-24 13:31 | 43.93935 | 17.97655 | 35227 ft | 434 kts | 123° |
| 2026-04-24 13:32 | 43.90226 | 18.04240 | 35224 ft | 434 kts | 123° |
| 2026-04-24 13:32 | 43.86553 | 18.10747 | 35224 ft | 434 kts | 123° |
| 2026-04-24 13:33 | 43.82854 | 18.17285 | 35222 ft | 433 kts | 123° |
| 2026-04-24 13:33 | 43.79134 | 18.23846 | 35221 ft | 433 kts | 123° |
| 2026-04-24 13:34 | 43.75419 | 18.30383 | 35219 ft | 434 kts | 123° |
| 2026-04-24 13:34 | 43.71699 | 18.36913 | 35218 ft | 434 kts | 123° |
| 2026-04-24 13:35 | 43.67982 | 18.43425 | 35210 ft | 434 kts | 123° |
| 2026-04-24 13:35 | 43.64252 | 18.49944 | 35209 ft | 434 kts | 123° |
| 2026-04-24 13:36 | 43.60490 | 18.56505 | 35213 ft | 435 kts | 122° |
| 2026-04-24 13:36 | 43.56747 | 18.63017 | 35203 ft | 435 kts | 123° |
| 2026-04-24 13:37 | 43.53005 | 18.69514 | 35203 ft | 436 kts | 123° |
| 2026-04-24 13:37 | 43.49247 | 18.76023 | 35212 ft | 436 kts | 123° |
| 2026-04-24 13:38 | 43.45465 | 18.82561 | 35217 ft | 436 kts | 123° |
| 2026-04-24 13:38 | 43.41687 | 18.89076 | 35215 ft | 437 kts | 123° |
| 2026-04-24 13:39 | 43.37922 | 18.95554 | 35214 ft | 436 kts | 123° |
| 2026-04-24 13:39 | 43.34132 | 19.02062 | 35219 ft | 436 kts | 123° |
| 2026-04-24 13:40 | 43.30367 | 19.08510 | 35212 ft | 436 kts | 123° |
| 2026-04-24 13:40 | 43.26566 | 19.15005 | 35205 ft | 436 kts | 123° |
| 2026-04-24 13:41 | 43.22779 | 19.21463 | 35187 ft | 436 kts | 123° |
| 2026-04-24 13:41 | 43.19010 | 19.27876 | 35183 ft | 435 kts | 123° |
| 2026-04-24 13:42 | 43.15196 | 19.34353 | 35187 ft | 435 kts | 123° |
| 2026-04-24 13:42 | 43.11401 | 19.40782 | 35189 ft | 435 kts | 123° |
| 2026-04-24 13:43 | 43.07631 | 19.47156 | 35196 ft | 435 kts | 123° |
| 2026-04-24 13:43 | 43.03806 | 19.53610 | 35197 ft | 436 kts | 123° |
| 2026-04-24 13:44 | 43.00008 | 19.60003 | 35201 ft | 436 kts | 123° |
| 2026-04-24 13:44 | 42.96185 | 19.66424 | 35205 ft | 436 kts | 124° |
| 2026-04-24 13:45 | 42.92359 | 19.72835 | 35195 ft | 437 kts | 124° |
| 2026-04-24 13:45 | 42.88525 | 19.79247 | 35194 ft | 437 kts | 123° |
| 2026-04-24 13:46 | 42.84695 | 19.85639 | 35187 ft | 437 kts | 124° |
| 2026-04-24 13:46 | 42.80862 | 19.92021 | 35178 ft | 437 kts | 124° |
| 2026-04-24 13:47 | 42.77000 | 19.98438 | 35163 ft | 437 kts | 124° |
| 2026-04-24 13:47 | 42.73166 | 20.04794 | 35149 ft | 437 kts | 124° |
| 2026-04-24 13:48 | 42.69299 | 20.11187 | 35141 ft | 438 kts | 123° |
| 2026-04-24 13:48 | 42.65444 | 20.17547 | 35145 ft | 438 kts | 124° |
| 2026-04-24 13:49 | 42.61591 | 20.23888 | 35165 ft | 438 kts | 124° |
| 2026-04-24 13:49 | 42.57719 | 20.30249 | 35181 ft | 439 kts | 124° |
| 2026-04-24 13:50 | 42.53828 | 20.36626 | 35191 ft | 439 kts | 124° |
| 2026-04-24 13:50 | 42.50115 | 20.42699 | 35189 ft | 439 kts | 124° |
| 2026-04-24 13:51 | 42.46294 | 20.48936 | 35186 ft | 439 kts | 123° |
| 2026-04-24 13:51 | 42.42372 | 20.55323 | 35189 ft | 439 kts | 124° |
| 2026-04-24 13:52 | 42.38585 | 20.61480 | 35189 ft | 440 kts | 124° |
| 2026-04-24 13:52 | 42.34665 | 20.67836 | 35190 ft | 440 kts | 124° |
| 2026-04-24 13:53 | 42.30823 | 20.74056 | 35187 ft | 440 kts | 124° |
| 2026-04-24 13:53 | 42.26986 | 20.80252 | 35190 ft | 441 kts | 124° |
| 2026-04-24 13:54 | 42.23048 | 20.86599 | 35191 ft | 441 kts | 124° |
| 2026-04-24 13:54 | 42.19099 | 20.92950 | 35183 ft | 441 kts | 124° |
| 2026-04-24 13:55 | 42.15176 | 20.99247 | 35180 ft | 441 kts | 124° |
| 2026-04-24 13:55 | 42.11297 | 21.05592 | 35185 ft | 439 kts | 121° |
| 2026-04-24 13:56 | 42.07865 | 21.12381 | 35176 ft | 437 kts | 118° |
| 2026-04-24 13:56 | 42.04515 | 21.19137 | 35173 ft | 437 kts | 118° |
| 2026-04-24 13:57 | 42.01148 | 21.25912 | 35168 ft | 437 kts | 118° |
| 2026-04-24 13:57 | 41.97786 | 21.32664 | 35170 ft | 437 kts | 118° |
| 2026-04-24 13:58 | 41.94390 | 21.39469 | 35164 ft | 438 kts | 118° |
| 2026-04-24 13:58 | 41.91002 | 21.46242 | 35161 ft | 438 kts | 118° |
| 2026-04-24 13:59 | 41.87610 | 21.53008 | 35165 ft | 439 kts | 118° |
| 2026-04-24 13:59 | 41.84215 | 21.59765 | 35172 ft | 439 kts | 118° |
| 2026-04-24 14:00 | 41.80805 | 21.66538 | 35155 ft | 440 kts | 119° |
| 2026-04-24 14:00 | 41.77372 | 21.73340 | 35151 ft | 441 kts | 119° |
| 2026-04-24 14:01 | 41.73949 | 21.80109 | 35155 ft | 441 kts | 119° |
| 2026-04-24 14:01 | 41.70497 | 21.86919 | 35161 ft | 442 kts | 119° |
| 2026-04-24 14:02 | 41.67044 | 21.93715 | 35164 ft | 443 kts | 119° |
| 2026-04-24 14:02 | 41.63605 | 22.00469 | 35163 ft | 444 kts | 119° |
| 2026-04-24 14:03 | 41.60134 | 22.07271 | 35166 ft | 444 kts | 119° |
| 2026-04-24 14:03 | 41.56647 | 22.14089 | 35163 ft | 444 kts | 120° |
| 2026-04-24 14:04 | 41.53165 | 22.20882 | 35162 ft | 445 kts | 119° |
| 2026-04-24 14:04 | 41.49695 | 22.27636 | 35153 ft | 445 kts | 119° |
| 2026-04-24 14:05 | 41.46198 | 22.34427 | 35151 ft | 445 kts | 120° |
| 2026-04-24 14:05 | 41.42709 | 22.41190 | 35145 ft | 445 kts | 119° |
| 2026-04-24 14:06 | 41.39204 | 22.47966 | 35143 ft | 445 kts | 119° |
| 2026-04-24 14:06 | 41.35692 | 22.54742 | 35139 ft | 445 kts | 120° |
| 2026-04-24 14:07 | 41.32249 | 22.61372 | 35132 ft | 446 kts | 120° |
| 2026-04-24 14:07 | 41.28718 | 22.68154 | 35129 ft | 446 kts | 120° |
| 2026-04-24 14:08 | 41.25267 | 22.74742 | 35129 ft | 447 kts | 122° |
| 2026-04-24 14:08 | 41.21440 | 22.81116 | 35134 ft | 450 kts | 125° |
| 2026-04-24 14:09 | 41.17527 | 22.87426 | 35138 ft | 450 kts | 125° |
| 2026-04-24 14:09 | 41.13564 | 22.93804 | 35132 ft | 450 kts | 125° |
| 2026-04-24 14:10 | 41.09572 | 23.00215 | 35133 ft | 450 kts | 125° |
| 2026-04-24 14:10 | 41.05645 | 23.06510 | 35126 ft | 451 kts | 125° |
| 2026-04-24 14:11 | 41.01665 | 23.12875 | 35117 ft | 451 kts | 125° |
| 2026-04-24 14:12 | 40.95682 | 23.22419 | 35118 ft | 451 kts | 125° |
| 2026-04-24 14:12 | 40.91652 | 23.28830 | 35122 ft | 451 kts | 126° |
| 2026-04-24 14:13 | 40.87644 | 23.35194 | 35121 ft | 451 kts | 125° |
| 2026-04-24 14:13 | 40.83634 | 23.41547 | 35120 ft | 451 kts | 126° |
| 2026-04-24 14:14 | 40.79639 | 23.47865 | 35115 ft | 451 kts | 126° |
| 2026-04-24 14:14 | 40.73601 | 23.57386 | 35115 ft | 451 kts | 126° |
| 2026-04-24 14:15 | 40.69598 | 23.63682 | 35114 ft | 452 kts | 126° |
| 2026-04-24 14:15 | 40.65537 | 23.70057 | 35109 ft | 452 kts | 127° |
| 2026-04-24 14:16 | 40.61518 | 23.76351 | 35120 ft | 453 kts | 127° |
| 2026-04-24 14:17 | 40.55444 | 23.85842 | 35122 ft | 453 kts | 127° |
| 2026-04-24 14:17 | 40.49357 | 23.95323 | 35120 ft | 454 kts | 127° |
| 2026-04-24 14:18 | 40.45307 | 24.01615 | 35114 ft | 454 kts | 127° |
| 2026-04-24 14:18 | 40.41210 | 24.07967 | 35115 ft | 454 kts | 127° |
| 2026-04-24 14:19 | 40.37162 | 24.14230 | 35117 ft | 454 kts | 127° |
| 2026-04-24 14:19 | 40.33071 | 24.20547 | 35116 ft | 455 kts | 127° |
| 2026-04-24 14:20 | 40.28991 | 24.26835 | 35114 ft | 455 kts | 127° |
| 2026-04-24 14:20 | 40.24881 | 24.33154 | 35112 ft | 455 kts | 128° |
| 2026-04-24 14:21 | 40.20818 | 24.39390 | 35110 ft | 455 kts | 128° |
| 2026-04-24 14:21 | 40.16704 | 24.45690 | 35108 ft | 455 kts | 128° |
| 2026-04-24 14:22 | 40.12606 | 24.51955 | 35108 ft | 455 kts | 128° |
| 2026-04-24 14:23 | 40.06455 | 24.61332 | 35100 ft | 455 kts | 128° |
| 2026-04-24 14:23 | 40.02316 | 24.67625 | 35107 ft | 455 kts | 129° |
| 2026-04-24 14:24 | 39.98217 | 24.73845 | 35103 ft | 455 kts | 129° |
| 2026-04-24 14:24 | 39.94081 | 24.80110 | 35111 ft | 456 kts | 129° |
| 2026-04-24 14:25 | 39.89955 | 24.86346 | 35113 ft | 455 kts | 129° |
| 2026-04-24 14:25 | 39.85816 | 24.92590 | 35108 ft | 455 kts | 129° |
| 2026-04-24 14:26 | 39.81689 | 24.98803 | 35108 ft | 455 kts | 129° |
| 2026-04-24 14:26 | 39.77556 | 25.05012 | 35105 ft | 455 kts | 129° |
| 2026-04-24 14:27 | 39.73427 | 25.11204 | 35102 ft | 455 kts | 129° |
| 2026-04-24 14:27 | 39.69311 | 25.17362 | 35098 ft | 455 kts | 129° |
| 2026-04-24 14:28 | 39.65158 | 25.23564 | 35095 ft | 455 kts | 129° |
| 2026-04-24 14:28 | 39.61013 | 25.29742 | 35095 ft | 455 kts | 129° |
| 2026-04-24 14:29 | 39.56868 | 25.35909 | 35096 ft | 456 kts | 129° |
| 2026-04-24 14:29 | 39.52705 | 25.42088 | 35095 ft | 456 kts | 129° |
| 2026-04-24 14:30 | 39.49238 | 25.47226 | 35097 ft | 456 kts | 130° |
| 2026-04-24 14:30 | 39.44356 | 25.54445 | 35092 ft | 457 kts | 130° |
| 2026-04-24 14:31 | 39.40179 | 25.60610 | 35097 ft | 457 kts | 130° |
| 2026-04-24 14:31 | 39.35987 | 25.66784 | 35095 ft | 457 kts | 131° |
| 2026-04-24 14:32 | 39.31805 | 25.72931 | 35093 ft | 458 kts | 131° |
| 2026-04-24 14:32 | 39.27595 | 25.79107 | 35093 ft | 458 kts | 131° |
| 2026-04-24 14:33 | 39.23416 | 25.85225 | 35086 ft | 458 kts | 131° |
| 2026-04-24 14:33 | 39.19219 | 25.91359 | 35088 ft | 458 kts | 131° |
| 2026-04-24 14:34 | 39.15003 | 25.97507 | 35087 ft | 457 kts | 131° |
| 2026-04-24 14:34 | 39.10812 | 26.03608 | 35082 ft | 457 kts | 131° |
| 2026-04-24 14:35 | 39.06584 | 26.09750 | 35072 ft | 457 kts | 131° |
| 2026-04-24 14:35 | 39.02385 | 26.15839 | 35067 ft | 457 kts | 131° |
| 2026-04-24 14:36 | 38.98182 | 26.21920 | 35062 ft | 457 kts | 131° |
| 2026-04-24 14:36 | 38.93951 | 26.28030 | 35044 ft | 459 kts | 131° |
| 2026-04-24 14:37 | 38.89702 | 26.34155 | 35054 ft | 460 kts | 132° |
| 2026-04-24 14:37 | 38.85568 | 26.40373 | 35047 ft | 463 kts | 124° |
| 2026-04-24 14:38 | 38.82866 | 26.47866 | 35055 ft | 468 kts | 103° |
| 2026-04-24 14:38 | 38.81765 | 26.56052 | 35078 ft | 469 kts | 98° |
| 2026-04-24 14:39 | 38.80755 | 26.64313 | 35088 ft | 470 kts | 98° |
| 2026-04-24 14:39 | 38.79733 | 26.72564 | 35070 ft | 471 kts | 99° |
| 2026-04-24 14:40 | 38.78703 | 26.80825 | 35062 ft | 472 kts | 99° |
| 2026-04-24 14:40 | 38.77661 | 26.89126 | 35061 ft | 473 kts | 100° |
| 2026-04-24 14:41 | 38.75898 | 26.97183 | 35065 ft | 472 kts | 118° |
| 2026-04-24 14:41 | 38.72300 | 27.04127 | 35080 ft | 470 kts | 130° |
| 2026-04-24 14:42 | 38.68339 | 27.10839 | 35088 ft | 470 kts | 130° |
| 2026-04-24 14:42 | 38.64414 | 27.17497 | 35079 ft | 470 kts | 130° |
| 2026-04-24 14:43 | 38.60490 | 27.24143 | 35071 ft | 470 kts | 130° |
| 2026-04-24 14:43 | 38.56562 | 27.30783 | 35062 ft | 471 kts | 131° |
| 2026-04-24 14:44 | 38.52614 | 27.37443 | 35062 ft | 472 kts | 131° |
| 2026-04-24 14:44 | 38.48651 | 27.44115 | 35053 ft | 473 kts | 131° |
| 2026-04-24 14:45 | 38.44686 | 27.50779 | 35058 ft | 473 kts | 131° |
| 2026-04-24 14:45 | 38.40691 | 27.57479 | 35064 ft | 475 kts | 132° |
| 2026-04-24 14:46 | 38.36697 | 27.64164 | 35050 ft | 475 kts | 132° |
| 2026-04-24 14:46 | 38.32682 | 27.70870 | 35040 ft | 476 kts | 133° |
| 2026-04-24 14:47 | 38.28872 | 27.77222 | 35041 ft | 476 kts | 133° |
| 2026-04-24 14:47 | 38.24161 | 27.83259 | 35051 ft | 462 kts | 151° |
| 2026-04-24 14:48 | 38.18870 | 27.88012 | 35048 ft | 462 kts | 152° |
| 2026-04-24 14:48 | 38.13655 | 27.92682 | 35054 ft | 461 kts | 152° |
| 2026-04-24 14:49 | 38.08415 | 27.97370 | 35051 ft | 462 kts | 153° |
| 2026-04-24 14:49 | 38.03198 | 28.02032 | 35063 ft | 455 kts | 153° |
| 2026-04-24 14:49 | 38.00653 | 28.04310 | 35049 ft | 441 kts | 153° |
| 2026-04-24 14:50 | 37.98175 | 28.06526 | 35049 ft | 426 kts | 154° |
| 2026-04-24 14:50 | 37.95808 | 28.08639 | 35055 ft | 411 kts | 154° |
| 2026-04-24 14:50 | 37.93491 | 28.10702 | 34941 ft | 401 kts | 154° |
| 2026-04-24 14:50 | 37.91269 | 28.12678 | 34797 ft | 391 kts | 155° |
| 2026-04-24 14:51 | 37.89051 | 28.14649 | 34653 ft | 382 kts | 155° |
| 2026-04-24 14:51 | 37.86890 | 28.16566 | 34459 ft | 375 kts | 155° |
| 2026-04-24 14:51 | 37.84787 | 28.18429 | 34126 ft | 371 kts | 155° |
| 2026-04-24 14:51 | 37.82695 | 28.20282 | 33838 ft | 366 kts | 155° |
| 2026-04-24 14:52 | 37.80617 | 28.22121 | 33458 ft | 363 kts | 156° |
| 2026-04-24 14:52 | 37.78557 | 28.23943 | 33095 ft | 360 kts | 155° |
| 2026-04-24 14:52 | 37.76522 | 28.25742 | 32733 ft | 358 kts | 156° |
| 2026-04-24 14:52 | 37.74492 | 28.27537 | 32402 ft | 354 kts | 156° |
| 2026-04-24 14:53 | 37.72492 | 28.29303 | 31992 ft | 352 kts | 156° |
| 2026-04-24 14:53 | 37.70506 | 28.31057 | 31680 ft | 348 kts | 156° |
| 2026-04-24 14:53 | 37.68507 | 28.32820 | 31277 ft | 347 kts | 156° |
| 2026-04-24 14:53 | 37.66561 | 28.34536 | 30953 ft | 343 kts | 156° |
| 2026-04-24 14:54 | 37.64617 | 28.36249 | 30547 ft | 342 kts | 156° |
| 2026-04-24 14:54 | 37.62662 | 28.37973 | 30166 ft | 340 kts | 156° |
| 2026-04-24 14:54 | 37.60746 | 28.39663 | 29846 ft | 337 kts | 156° |
| 2026-04-24 14:54 | 37.58814 | 28.41363 | 29435 ft | 335 kts | 156° |
| 2026-04-24 14:55 | 37.57558 | 28.42467 | 29200 ft | 334 kts | 156° |
| 2026-04-24 14:55 | 37.55050 | 28.44674 | 28757 ft | 330 kts | 156° |
| 2026-04-24 14:55 | 37.53169 | 28.46324 | 28351 ft | 329 kts | 156° |
| 2026-04-24 14:55 | 37.51286 | 28.47977 | 27969 ft | 328 kts | 156° |
| 2026-04-24 14:56 | 37.49424 | 28.49559 | 27634 ft | 319 kts | 163° |
| 2026-04-24 14:56 | 37.47430 | 28.50503 | 27206 ft | 300 kts | 178° |
| 2026-04-24 14:56 | 37.45381 | 28.51127 | 26840 ft | 299 kts | 177° |
| 2026-04-24 14:56 | 37.43387 | 28.51753 | 26518 ft | 296 kts | 177° |
| 2026-04-24 14:57 | 37.41389 | 28.52376 | 26117 ft | 296 kts | 176° |
| 2026-04-24 14:57 | 37.39393 | 28.52999 | 25715 ft | 296 kts | 176° |
| 2026-04-24 14:57 | 37.37396 | 28.53622 | 25367 ft | 294 kts | 177° |
| 2026-04-24 14:57 | 37.35441 | 28.54232 | 25041 ft | 291 kts | 176° |
| 2026-04-24 14:58 | 37.33471 | 28.54846 | 24695 ft | 289 kts | 176° |
| 2026-04-24 14:58 | 37.31540 | 28.55446 | 24352 ft | 287 kts | 176° |
| 2026-04-24 14:58 | 37.29594 | 28.56052 | 24019 ft | 285 kts | 176° |
| 2026-04-24 14:58 | 37.27676 | 28.56648 | 23633 ft | 285 kts | 176° |
| 2026-04-24 14:59 | 37.25754 | 28.57244 | 23253 ft | 285 kts | 176° |
| 2026-04-24 14:59 | 37.23832 | 28.57841 | 22929 ft | 283 kts | 176° |
| 2026-04-24 14:59 | 37.21955 | 28.58425 | 22600 ft | 281 kts | 176° |
| 2026-04-24 14:59 | 37.20050 | 28.59015 | 22233 ft | 280 kts | 176° |
| 2026-04-24 15:00 | 37.18149 | 28.59606 | 21902 ft | 279 kts | 176° |
| 2026-04-24 15:00 | 37.16275 | 28.60187 | 21564 ft | 278 kts | 175° |
| 2026-04-24 15:00 | 37.14422 | 28.60761 | 21417 ft | 277 kts | 176° |
| 2026-04-24 15:00 | 37.12532 | 28.61345 | 21339 ft | 277 kts | 175° |
| 2026-04-24 15:01 | 37.10669 | 28.61921 | 21155 ft | 278 kts | 175° |
| 2026-04-24 15:01 | 37.08771 | 28.62508 | 20720 ft | 281 kts | 175° |
| 2026-04-24 15:01 | 37.06879 | 28.62989 | 20231 ft | 277 kts | 187° |
| 2026-04-24 15:01 | 37.05058 | 28.62577 | 19712 ft | 262 kts | 214° |
| 2026-04-24 15:02 | 37.03783 | 28.61076 | 19195 ft | 253 kts | 245° |
| 2026-04-24 15:02 | 37.03491 | 28.58947 | 18709 ft | 257 kts | 277° |
| 2026-04-24 15:02 | 37.04048 | 28.56919 | 18289 ft | 262 kts | 285° |
| 2026-04-24 15:02 | 37.04911 | 28.54905 | 17805 ft | 272 kts | 303° |
| 2026-04-24 15:03 | 37.06260 | 28.53304 | 17355 ft | 284 kts | 320° |
| 2026-04-24 15:03 | 37.08164 | 28.52464 | 16854 ft | 303 kts | 351° |
| 2026-04-24 15:03 | 37.10239 | 28.52963 | 16389 ft | 317 kts | 21° |
| 2026-04-24 15:03 | 37.12205 | 28.54203 | 15977 ft | 314 kts | 22° |
| 2026-04-24 15:04 | 37.13950 | 28.55927 | 15502 ft | 322 kts | 49° |
| 2026-04-24 15:04 | 37.14953 | 28.58274 | 15247 ft | 318 kts | 73° |
| 2026-04-24 15:04 | 37.15152 | 28.60986 | 15035 ft | 307 kts | 94° |
| 2026-04-24 15:04 | 37.14965 | 28.63610 | 14840 ft | 296 kts | 96° |
| 2026-04-24 15:05 | 37.14769 | 28.65944 | 14636 ft | 289 kts | 97° |
| 2026-04-24 15:05 | 37.14568 | 28.68347 | 14276 ft | 289 kts | 97° |
| 2026-04-24 15:05 | 37.14361 | 28.70863 | 13828 ft | 292 kts | 96° |
| 2026-04-24 15:05 | 37.14153 | 28.73388 | 13387 ft | 293 kts | 96° |
| 2026-04-24 15:06 | 37.13943 | 28.75922 | 12929 ft | 293 kts | 97° |
| 2026-04-24 15:06 | 37.13838 | 28.78474 | 12471 ft | 293 kts | 85° |
| 2026-04-24 15:06 | 37.14152 | 28.80966 | 12024 ft | 293 kts | 79° |
| 2026-04-24 15:06 | 37.14502 | 28.83445 | 11715 ft | 287 kts | 80° |
| 2026-04-24 15:07 | 37.14836 | 28.85857 | 11490 ft | 278 kts | 80° |
| 2026-04-24 15:07 | 37.15162 | 28.88198 | 11329 ft | 267 kts | 81° |
| 2026-04-24 15:07 | 37.15472 | 28.90434 | 11205 ft | 256 kts | 80° |
| 2026-04-24 15:07 | 37.15748 | 28.92646 | 11092 ft | 257 kts | 88° |
| 2026-04-24 15:08 | 37.15539 | 28.94831 | 10977 ft | 255 kts | 111° |
| 2026-04-24 15:08 | 37.14741 | 28.96784 | 10942 ft | 250 kts | 131° |
| 2026-04-24 15:08 | 37.13538 | 28.98295 | 10794 ft | 244 kts | 142° |
| 2026-04-24 15:08 | 37.12269 | 28.99693 | 10505 ft | 244 kts | 141° |
| 2026-04-24 15:09 | 37.11010 | 29.01107 | 10238 ft | 243 kts | 141° |
| 2026-04-24 15:09 | 37.09742 | 29.02528 | 9987 ft | 241 kts | 141° |
| 2026-04-24 15:09 | 37.08516 | 29.03899 | 9741 ft | 239 kts | 142° |
| 2026-04-24 15:09 | 37.07093 | 29.04891 | 9443 ft | 234 kts | 170° |
| 2026-04-24 15:10 | 37.05476 | 29.04876 | 9143 ft | 230 kts | 197° |
| 2026-04-24 15:10 | 37.04094 | 29.03938 | 8963 ft | 228 kts | 224° |
| 2026-04-24 15:10 | 37.02949 | 29.02550 | 8931 ft | 231 kts | 223° |
| 2026-04-24 15:10 | 37.01788 | 29.01182 | 8881 ft | 228 kts | 223° |
| 2026-04-24 15:11 | 37.00535 | 28.99992 | 8592 ft | 228 kts | 202° |
| 2026-04-24 15:11 | 36.99009 | 28.99415 | 8328 ft | 228 kts | 197° |
| 2026-04-24 15:11 | 36.97506 | 28.98853 | 8096 ft | 226 kts | 197° |
| 2026-04-24 15:11 | 36.96006 | 28.98295 | 7849 ft | 225 kts | 197° |
| 2026-04-24 15:12 | 36.94513 | 28.97733 | 7538 ft | 223 kts | 200° |
| 2026-04-24 15:12 | 36.92016 | 28.95447 | 6711 ft | 229 kts | 220° |
| 2026-04-24 15:12 | 36.90795 | 28.94157 | 6240 ft | 235 kts | 220° |
| 2026-04-24 15:13 | 36.89530 | 28.92815 | 5758 ft | 241 kts | 220° |
| 2026-04-24 15:13 | 36.88245 | 28.91452 | 5324 ft | 244 kts | 220° |
| 2026-04-24 15:13 | 36.86958 | 28.90088 | 4979 ft | 242 kts | 220° |
| 2026-04-24 15:13 | 36.85667 | 28.88759 | 4697 ft | 238 kts | 216° |
| 2026-04-24 15:14 | 36.84286 | 28.87669 | 4429 ft | 233 kts | 210° |
| 2026-04-24 15:14 | 36.82874 | 28.86697 | 4160 ft | 230 kts | 209° |
| 2026-04-24 15:14 | 36.81479 | 28.85753 | 3883 ft | 227 kts | 209° |
| 2026-04-24 15:14 | 36.80175 | 28.84697 | 3611 ft | 222 kts | 222° |
| 2026-04-24 15:15 | 36.79075 | 28.83317 | 2970 ft | 230 kts | 227° |
| 2026-04-24 15:15 | 36.77878 | 28.81992 | 2474 ft | 226 kts | 213° |
| 2026-04-24 15:15 | 36.76497 | 28.81098 | 1968 ft | 226 kts | 200° |
| 2026-04-24 15:15 | 36.75013 | 28.80578 | 1655 ft | 216 kts | 195° |
| 2026-04-24 15:16 | 36.73597 | 28.80128 | 1791 ft | 219 kts | 195° |
| 2026-04-24 15:16 | 36.72035 | 28.79546 | 2481 ft | 245 kts | 200° |
| 2026-04-24 15:16 | 36.70369 | 28.78793 | 3270 ft | 264 kts | 202° |
| 2026-04-24 15:16 | 36.68696 | 28.77812 | 4246 ft | 270 kts | 213° |
| 2026-04-24 15:17 | 36.67222 | 28.76540 | 5540 ft | 261 kts | 215° |
| 2026-04-24 15:17 | 36.65776 | 28.75288 | 6846 ft | 251 kts | 215° |
| 2026-04-24 15:17 | 36.64423 | 28.74136 | 7951 ft | 229 kts | 215° |
| 2026-04-24 15:17 | 36.63087 | 28.73010 | 8587 ft | 240 kts | 215° |
| 2026-04-24 15:18 | 36.61697 | 28.71849 | 8896 ft | 242 kts | 214° |
| 2026-04-24 15:18 | 36.60296 | 28.70686 | 8970 ft | 241 kts | 214° |
| 2026-04-24 15:18 | 36.58879 | 28.69537 | 8983 ft | 241 kts | 210° |
| 2026-04-24 15:18 | 36.57259 | 28.69056 | 8983 ft | 245 kts | 176° |
| 2026-04-24 15:19 | 36.55678 | 28.69821 | 8981 ft | 254 kts | 142° |
| 2026-04-24 15:19 | 36.54613 | 28.71568 | 8990 ft | 258 kts | 123° |
| 2026-04-24 15:19 | 36.53704 | 28.73509 | 8985 ft | 258 kts | 123° |
| 2026-04-24 15:19 | 36.52807 | 28.75416 | 8975 ft | 257 kts | 123° |
| 2026-04-24 15:20 | 36.51904 | 28.77338 | 8975 ft | 258 kts | 123° |
| 2026-04-24 15:20 | 36.50992 | 28.79275 | 8976 ft | 258 kts | 123° |
| 2026-04-24 15:20 | 36.50088 | 28.81197 | 8979 ft | 259 kts | 122° |
| 2026-04-24 15:20 | 36.49577 | 28.83347 | 8979 ft | 266 kts | 89° |
| 2026-04-24 15:21 | 36.50134 | 28.85516 | 8979 ft | 268 kts | 56° |
| 2026-04-24 15:21 | 36.51203 | 28.87400 | 8972 ft | 267 kts | 54° |
| 2026-04-24 15:21 | 36.52286 | 28.89285 | 8975 ft | 266 kts | 55° |
| 2026-04-24 15:21 | 36.53345 | 28.91143 | 8970 ft | 266 kts | 55° |
| 2026-04-24 15:22 | 36.54416 | 28.93032 | 8969 ft | 265 kts | 55° |
| 2026-04-24 15:22 | 36.55481 | 28.94921 | 8974 ft | 266 kts | 55° |
| 2026-04-24 15:22 | 36.56531 | 28.96789 | 8969 ft | 267 kts | 55° |
| 2026-04-24 15:23 | 36.58650 | 29.00577 | 8972 ft | 265 kts | 55° |
| 2026-04-24 15:23 | 36.60763 | 29.04370 | 8973 ft | 266 kts | 55° |
| 2026-04-24 15:23 | 36.61812 | 29.06256 | 8979 ft | 266 kts | 55° |
| 2026-04-24 15:24 | 36.64971 | 29.11942 | 8995 ft | 265 kts | 54° |
| 2026-04-24 15:25 | 36.67486 | 29.13898 | 9008 ft | 263 kts | 8° |
| 2026-04-24 15:25 | 36.71677 | 29.14798 | 9008 ft | 262 kts | 8° |
| 2026-04-24 15:26 | 36.77054 | 29.15964 | 9010 ft | 262 kts | 8° |
| 2026-04-24 15:27 | 36.82453 | 29.17138 | 9014 ft | 261 kts | 8° |
| 2026-04-24 15:27 | 36.87828 | 29.18308 | 9014 ft | 262 kts | 8° |
| 2026-04-24 15:28 | 36.95005 | 29.19876 | 9008 ft | 260 kts | 8° |
| 2026-04-24 15:29 | 36.98572 | 29.20297 | 9005 ft | 258 kts | 342° |
| 2026-04-24 15:30 | 37.01967 | 29.15535 | 9005 ft | 250 kts | 298° |
| 2026-04-24 15:31 | 37.05510 | 29.08044 | 8998 ft | 251 kts | 299° |
| 2026-04-24 15:32 | 37.09980 | 29.01734 | 9003 ft | 261 kts | 358° |
| 2026-04-24 15:33 | 37.15902 | 29.06464 | 9004 ft | 261 kts | 75° |
| 2026-04-24 15:33 | 37.13454 | 29.11530 | 9009 ft | 248 kts | 171° |
| 2026-04-24 15:34 | 37.10324 | 29.10354 | 9012 ft | 245 kts | 218° |
| 2026-04-24 15:35 | 37.06313 | 29.06593 | 9005 ft | 229 kts | 217° |
| 2026-04-24 15:35 | 37.03760 | 29.04467 | 8909 ft | 214 kts | 209° |
| 2026-04-24 15:35 | 37.02475 | 29.03582 | 8786 ft | 208 kts | 210° |
| 2026-04-24 15:36 | 37.01221 | 29.02705 | 8643 ft | 203 kts | 210° |
| 2026-04-24 15:36 | 36.98792 | 29.00980 | 8201 ft | 199 kts | 210° |
| 2026-04-24 15:36 | 36.97591 | 29.00119 | 7953 ft | 193 kts | 210° |
| 2026-04-24 15:37 | 36.96469 | 28.99311 | 7795 ft | 180 kts | 210° |
| 2026-04-24 15:37 | 36.95414 | 28.98550 | 7613 ft | 171 kts | 210° |
| 2026-04-24 15:37 | 36.94413 | 28.97825 | 7427 ft | 162 kts | 210° |
| 2026-04-24 15:37 | 36.93503 | 28.97013 | 7182 ft | 160 kts | 221° |
| 2026-04-24 15:38 | 36.92657 | 28.96111 | 6881 ft | 161 kts | 220° |
| 2026-04-24 15:38 | 36.91806 | 28.95212 | 6575 ft | 161 kts | 220° |
| 2026-04-24 15:38 | 36.90959 | 28.94317 | 6280 ft | 159 kts | 219° |
| 2026-04-24 15:38 | 36.90122 | 28.93432 | 5976 ft | 158 kts | 220° |
| 2026-04-24 15:39 | 36.89280 | 28.92541 | 5692 ft | 157 kts | 219° |
| 2026-04-24 15:39 | 36.88451 | 28.91665 | 5391 ft | 157 kts | 220° |
| 2026-04-24 15:39 | 36.87604 | 28.90769 | 5006 ft | 162 kts | 220° |
| 2026-04-24 15:39 | 36.86742 | 28.89856 | 4658 ft | 164 kts | 220° |
| 2026-04-24 15:40 | 36.85869 | 28.88936 | 4322 ft | 165 kts | 219° |
| 2026-04-24 15:40 | 36.84905 | 28.88182 | 4011 ft | 164 kts | 210° |
| 2026-04-24 15:40 | 36.83924 | 28.87469 | 3699 ft | 163 kts | 211° |
| 2026-04-24 15:40 | 36.82951 | 28.86759 | 3451 ft | 157 kts | 211° |
| 2026-04-24 15:41 | 36.82024 | 28.86061 | 3201 ft | 153 kts | 214° |
| 2026-04-24 15:41 | 36.81159 | 28.85295 | 2903 ft | 155 kts | 217° |
| 2026-04-24 15:41 | 36.80306 | 28.84476 | 2612 ft | 153 kts | 219° |
| 2026-04-24 15:41 | 36.79491 | 28.83633 | 2272 ft | 156 kts | 222° |
| 2026-04-24 15:42 | 36.78679 | 28.82729 | 1899 ft | 154 kts | 223° |
| 2026-04-24 15:42 | 36.77847 | 28.81943 | 1551 ft | 147 kts | 213° |
| 2026-04-24 15:42 | 36.76967 | 28.81337 | 1210 ft | 141 kts | 205° |
| 2026-04-24 15:42 | 36.76057 | 28.80895 | 866 ft | 143 kts | 200° |
| 2026-04-24 15:43 | 36.75109 | 28.80552 | 595 ft | 137 kts | 197° |
| 2026-04-24 15:43 | 36.74223 | 28.80248 | 393 ft | 131 kts | 197° |
| 2026-04-24 15:43 | 36.73315 | 28.79940 | 230 ft | 138 kts | 197° |
| 2026-04-24 15:43 | 36.72389 | 28.79619 | 37 ft | 133 kts | 198° |
| 2026-04-24 15:44 | 36.71633 | 28.79356 | 22 ft | 77 kts | 194° |
| 2026-04-24 15:44 | 36.71298 | 28.79243 | 21 ft | 47 kts | 197° |
| 2026-04-24 15:44 | 36.70976 | 28.79133 | 18 ft | 47 kts | 195° |
| 2026-04-24 15:44 | 36.70719 | 28.79024 | 16 ft | 36 kts | 215° |
| 2026-04-24 15:45 | 36.70605 | 28.78907 | 15 ft | 13 kts | 224° |
| 2026-04-24 15:45 | 36.70568 | 28.78845 | 15 ft | 9 kts | 261° |
| 2026-04-24 15:45 | 36.70608 | 28.78792 | 16 ft | 9 kts | 1° |
| 2026-04-24 15:45 | 36.70676 | 28.78817 | 16 ft | 11 kts | 15° |
| 2026-04-24 15:46 | 36.70768 | 28.78849 | 16 ft | 14 kts | 15° |
| 2026-04-24 15:46 | 36.70870 | 28.78883 | 17 ft | 15 kts | 15° |
| 2026-04-24 15:46 | 36.70976 | 28.78919 | 18 ft | 16 kts | 15° |
| 2026-04-24 15:46 | 36.71086 | 28.78957 | 19 ft | 16 kts | 15° |
| 2026-04-24 15:47 | 36.71202 | 28.78997 | 20 ft | 17 kts | 15° |
| 2026-04-24 15:47 | 36.71322 | 28.79037 | 20 ft | 18 kts | 15° |
| 2026-04-24 15:47 | 36.71450 | 28.79081 | 21 ft | 19 kts | 15° |
| 2026-04-24 15:47 | 36.71582 | 28.79126 | 22 ft | 19 kts | 15° |
| 2026-04-24 15:48 | 36.71699 | 28.79165 | 23 ft | 13 kts | 15° |
| 2026-04-24 15:48 | 36.71784 | 28.79194 | 25 ft | 10 kts | 15° |
| 2026-04-24 15:48 | 36.71854 | 28.79209 | 25 ft | 9 kts | 345° |
| 2026-04-24 15:48 | 36.71885 | 28.79143 | 26 ft | 9 kts | 284° |
| 2026-04-24 15:49 | 36.71901 | 28.79069 | 27 ft | 9 kts | 294° |
| 2026-04-24 15:49 | 36.71952 | 28.79038 | 27 ft | 9 kts | 9° |
| 2026-04-24 15:49 | 36.72031 | 28.79068 | 28 ft | 13 kts | 16° |
| 2026-04-24 15:49 | 36.72123 | 28.79099 | 29 ft | 13 kts | 15° |
| 2026-04-24 15:50 | 36.72179 | 28.79118 | 30 ft | 6 kts | 15° |
| 2026-04-24 15:50 | 36.72222 | 28.79133 | 31 ft | 6 kts | 15° |
| 2026-04-24 15:50 | 36.72257 | 28.79133 | 32 ft | 4 kts | 327° |
| 2026-04-24 15:50 | 36.72271 | 28.79100 | 32 ft | 4 kts | 287° |
| 2026-04-24 15:51 | 36.72278 | 28.79070 | 32 ft | 2 kts | 285° |
| 2026-04-24 15:51 | 36.72282 | 28.79052 | 32 ft | 0 kts | 285° |